createdAt,value
2017-12-06T00:01:42.520Z,4.00
2017-12-06T00:04:10.051Z,3.90
2017-12-06T00:06:37.566Z,3.90
2017-12-06T00:09:05.243Z,3.90
2017-12-06T00:11:32.755Z,4.00
2017-12-06T00:14:05.959Z,4.00
2017-12-06T00:16:33.459Z,4.00
2017-12-06T00:19:00.975Z,4.00
2017-12-06T00:21:28.534Z,4.00
2017-12-06T00:23:56.039Z,4.00
2017-12-06T00:26:23.538Z,4.00
2017-12-06T00:28:51.164Z,4.00
2017-12-06T00:31:19.003Z,4.00
2017-12-06T00:33:47.275Z,4.00
2017-12-06T00:36:15.583Z,4.10
2017-12-06T00:38:43.088Z,4.10
2017-12-06T00:41:10.650Z,4.00
2017-12-06T00:43:38.426Z,4.10
2017-12-06T00:46:05.939Z,4.10
2017-12-06T00:48:33.784Z,4.10
2017-12-06T00:51:01.286Z,4.00
2017-12-06T00:53:28.790Z,4.10
2017-12-06T00:55:56.970Z,4.00
2017-12-06T00:58:24.790Z,4.00
2017-12-06T01:00:52.304Z,3.90
2017-12-06T01:03:19.851Z,3.90
2017-12-06T01:05:47.367Z,3.90
2017-12-06T01:08:14.879Z,4.00
2017-12-06T01:10:42.450Z,4.00
2017-12-06T01:13:09.967Z,4.00
2017-12-06T01:15:37.831Z,4.00
2017-12-06T01:18:05.392Z,4.00
2017-12-06T01:20:33.680Z,3.90
2017-12-06T01:23:01.217Z,3.90
2017-12-06T01:25:28.817Z,4.00
2017-12-06T01:27:56.336Z,4.00
2017-12-06T01:30:23.899Z,4.00
2017-12-06T01:35:24.351Z,3.90
2017-12-06T01:37:52.891Z,4.00
2017-12-06T01:40:21.255Z,4.00
2017-12-06T01:42:48.783Z,4.00
2017-12-06T01:45:16.694Z,3.90
2017-12-06T01:50:16.979Z,4.00
2017-12-06T01:52:44.502Z,3.90
2017-12-06T01:55:12.322Z,4.00
2017-12-06T01:57:39.863Z,3.90
2017-12-06T02:00:08.704Z,3.90
2017-12-06T02:02:36.295Z,4.00
2017-12-06T02:05:04.213Z,3.90
2017-12-06T02:07:31.862Z,3.90
2017-12-06T02:09:59.427Z,3.90
2017-12-06T02:12:26.954Z,3.90
2017-12-06T02:14:54.507Z,3.90
2017-12-06T02:17:22.166Z,3.90
2017-12-06T02:19:49.671Z,3.90
2017-12-06T02:22:17.174Z,3.90
2017-12-06T02:24:44.751Z,3.90
2017-12-06T02:27:12.265Z,3.90
2017-12-06T02:29:39.778Z,3.90
2017-12-06T02:32:08.007Z,3.90
2017-12-06T02:34:35.558Z,3.90
2017-12-06T02:37:03.075Z,3.90
2017-12-06T02:39:43.291Z,3.90
2017-12-06T02:42:22.524Z,3.80
2017-12-06T02:45:15.887Z,4.00
2017-12-06T02:47:43.396Z,4.00
2017-12-06T02:50:10.907Z,4.00
2017-12-06T02:52:38.453Z,3.90
2017-12-06T02:55:05.960Z,3.70
2017-12-06T02:57:33.475Z,4.00
2017-12-06T03:00:01.031Z,4.00
2017-12-06T03:02:28.918Z,4.00
2017-12-06T03:04:56.427Z,4.10
2017-12-06T03:07:23.975Z,4.00
2017-12-06T03:09:52.277Z,4.00
2017-12-06T03:12:19.774Z,4.00
2017-12-06T03:14:47.689Z,4.00
2017-12-06T03:17:15.647Z,4.10
2017-12-06T03:19:43.171Z,4.10
2017-12-06T03:22:10.754Z,4.10
2017-12-06T03:24:39.031Z,4.10
2017-12-06T03:27:06.535Z,4.10
2017-12-06T03:29:34.114Z,4.20
2017-12-06T03:32:01.618Z,4.10
2017-12-06T03:34:29.888Z,4.10
2017-12-06T03:36:57.446Z,4.10
2017-12-06T03:39:24.958Z,4.20
2017-12-06T03:41:53.207Z,4.10
2017-12-06T03:44:20.843Z,4.20
2017-12-06T03:46:48.359Z,4.10
2017-12-06T03:49:16.011Z,4.20
2017-12-06T03:51:43.515Z,4.20
2017-12-06T03:54:11.786Z,4.10
2017-12-06T03:56:39.796Z,4.10
2017-12-06T03:59:07.718Z,4.10
2017-12-06T04:01:35.266Z,4.10
2017-12-06T04:04:03.023Z,4.10
2017-12-06T04:06:30.573Z,4.20
2017-12-06T04:08:59.138Z,4.10
2017-12-06T04:11:26.688Z,4.10
2017-12-06T04:13:54.186Z,4.10
2017-12-06T04:16:22.414Z,4.10
2017-12-06T04:18:49.947Z,4.10
2017-12-06T04:21:17.446Z,4.10
2017-12-06T04:23:45.079Z,4.20
2017-12-06T04:26:12.707Z,4.20
2017-12-06T04:28:40.211Z,4.20
2017-12-06T04:31:08.243Z,4.30
2017-12-06T04:33:35.806Z,4.20
2017-12-06T04:36:03.306Z,4.20
2017-12-06T04:38:31.004Z,4.10
2017-12-06T04:40:58.587Z,4.20
2017-12-06T04:43:26.207Z,4.10
2017-12-06T04:45:53.714Z,4.10
2017-12-06T04:48:21.383Z,4.20
2017-12-06T04:50:48.895Z,4.30
2017-12-06T04:53:16.394Z,4.30
2017-12-06T04:55:43.975Z,4.30
2017-12-06T04:58:12.926Z,4.30
2017-12-06T05:00:40.424Z,4.30
2017-12-06T05:03:08.279Z,4.30
2017-12-06T05:05:35.818Z,4.30
2017-12-06T05:08:03.698Z,4.30
2017-12-06T05:10:32.336Z,4.30
2017-12-06T05:12:59.856Z,4.30
2017-12-06T05:15:27.360Z,4.30
2017-12-06T05:17:54.919Z,4.30
2017-12-06T05:20:22.419Z,4.30
2017-12-06T05:22:49.932Z,4.30
2017-12-06T05:25:17.534Z,4.30
2017-12-06T05:27:45.029Z,4.30
2017-12-06T05:30:12.538Z,4.30
2017-12-06T05:32:40.095Z,4.30
2017-12-06T05:35:07.707Z,4.30
2017-12-06T05:37:37.394Z,4.30
2017-12-06T05:40:04.927Z,4.20
2017-12-06T05:42:32.498Z,4.20
2017-12-06T05:44:59.963Z,4.30
2017-12-06T05:47:27.923Z,4.20
2017-12-06T05:49:56.561Z,4.20
2017-12-06T05:52:24.090Z,4.20
2017-12-06T05:54:51.635Z,4.20
2017-12-06T05:57:19.142Z,4.20
2017-12-06T05:59:46.647Z,4.20
2017-12-06T06:02:14.199Z,4.30
2017-12-06T06:04:41.699Z,4.30
2017-12-06T06:07:09.203Z,4.20
2017-12-06T06:09:36.757Z,4.20
2017-12-06T06:12:04.260Z,4.20
2017-12-06T06:14:31.768Z,4.20
2017-12-06T06:16:59.339Z,4.30
2017-12-06T06:19:26.830Z,4.20
2017-12-06T06:21:54.366Z,4.20
2017-12-06T06:24:21.918Z,4.30
2017-12-06T06:26:49.430Z,4.20
2017-12-06T06:29:17.255Z,4.20
2017-12-06T06:31:44.758Z,4.20
2017-12-06T06:34:12.790Z,4.20
2017-12-06T06:36:40.368Z,4.20
2017-12-06T06:39:07.881Z,4.20
2017-12-06T06:41:35.641Z,4.10
2017-12-06T06:44:03.167Z,4.20
2017-12-06T06:46:30.673Z,4.20
2017-12-06T06:48:58.178Z,4.20
2017-12-06T06:51:25.851Z,4.20
2017-12-06T06:53:53.362Z,4.30
2017-12-06T06:56:20.871Z,4.30
2017-12-06T06:58:48.434Z,4.00
2017-12-06T07:01:15.935Z,4.30
2017-12-06T07:03:43.438Z,4.30
2017-12-06T07:06:11.035Z,4.30
2017-12-06T07:08:38.549Z,4.20
2017-12-06T07:11:06.055Z,4.30
2017-12-06T07:13:33.614Z,4.30
2017-12-06T07:16:01.118Z,4.30
2017-12-06T07:18:28.894Z,4.30
2017-12-06T07:20:57.367Z,4.30
2017-12-06T07:23:24.915Z,4.30
2017-12-06T07:25:53.186Z,4.30
2017-12-06T07:28:21.522Z,4.20
2017-12-06T07:30:49.047Z,4.20
2017-12-06T07:33:16.555Z,4.30
2017-12-06T07:35:44.121Z,4.30
2017-12-06T07:38:11.635Z,4.30
2017-12-06T07:40:39.151Z,4.30
2017-12-06T07:43:06.674Z,4.30
2017-12-06T07:45:34.175Z,4.40
2017-12-06T07:48:01.739Z,4.40
2017-12-06T07:50:29.326Z,4.40
2017-12-06T07:52:56.835Z,4.30
2017-12-06T07:55:24.394Z,4.50
2017-12-06T07:57:51.895Z,4.50
2017-12-06T08:00:19.394Z,4.50
2017-12-06T08:02:48.590Z,4.40
2017-12-06T08:05:16.090Z,4.40
2017-12-06T08:07:44.021Z,4.40
2017-12-06T08:10:11.570Z,4.40
2017-12-06T08:12:39.098Z,4.40
2017-12-06T08:15:06.591Z,4.50
2017-12-06T08:17:34.631Z,4.40
2017-12-06T08:20:02.140Z,4.50
2017-12-06T08:22:29.646Z,4.50
2017-12-06T08:24:57.194Z,4.50
2017-12-06T08:27:24.697Z,4.50
2017-12-06T08:29:52.203Z,4.60
2017-12-06T08:32:20.243Z,4.60
2017-12-06T08:34:48.175Z,4.70
2017-12-06T08:37:15.687Z,4.60
2017-12-06T08:39:43.239Z,4.70
2017-12-06T08:42:10.764Z,4.70
2017-12-06T08:44:38.276Z,4.70
2017-12-06T08:47:05.831Z,4.60
2017-12-06T08:49:33.425Z,4.60
2017-12-06T08:52:00.922Z,4.70
2017-12-06T08:54:28.484Z,4.80
2017-12-06T08:56:55.994Z,4.80
2017-12-06T08:59:23.991Z,4.70
2017-12-06T09:01:51.547Z,4.80
2017-12-06T09:04:19.711Z,4.80
2017-12-06T09:06:47.465Z,4.80
2017-12-06T09:09:15.050Z,4.80
2017-12-06T09:11:42.563Z,4.90
2017-12-06T09:14:10.059Z,5.00
2017-12-06T09:16:37.754Z,5.00
2017-12-06T09:19:05.295Z,5.00
2017-12-06T09:21:32.802Z,4.90
2017-12-06T09:24:00.343Z,5.00
2017-12-06T09:26:27.854Z,5.00
2017-12-06T09:28:55.354Z,5.10
2017-12-06T09:31:23.007Z,5.00
2017-12-06T09:33:50.510Z,4.80
2017-12-06T09:36:18.011Z,4.80
2017-12-06T09:38:45.639Z,4.90
2017-12-06T09:41:13.199Z,5.00
2017-12-06T09:43:40.698Z,5.10
2017-12-06T09:46:08.244Z,5.20
2017-12-06T09:48:35.759Z,5.10
2017-12-06T09:51:04.176Z,5.10
2017-12-06T09:53:31.699Z,5.10
2017-12-06T09:55:59.874Z,5.00
2017-12-06T09:58:27.447Z,5.10
2017-12-06T10:00:54.950Z,5.00
2017-12-06T10:03:22.458Z,5.10
2017-12-06T10:05:50.107Z,5.20
2017-12-06T10:08:17.616Z,5.10
2017-12-06T10:10:45.123Z,5.20
2017-12-06T10:13:13.439Z,5.20
2017-12-06T10:15:41.706Z,5.20
2017-12-06T10:18:09.214Z,5.20
2017-12-06T10:20:37.154Z,5.30
2017-12-06T10:23:04.663Z,5.30
2017-12-06T10:25:32.171Z,5.40
2017-12-06T10:27:59.761Z,5.30
2017-12-06T10:30:27.258Z,5.30
2017-12-06T10:32:54.763Z,5.40
2017-12-06T10:35:22.675Z,5.40
2017-12-06T10:37:50.189Z,5.40
2017-12-06T10:40:17.705Z,5.40
2017-12-06T10:42:45.315Z,5.50
2017-12-06T10:45:13.023Z,5.50
2017-12-06T10:47:41.142Z,5.50
2017-12-06T10:50:08.727Z,5.60
2017-12-06T10:52:36.222Z,5.50
2017-12-06T10:55:03.723Z,5.70
2017-12-06T10:57:31.642Z,5.60
2017-12-06T10:59:59.155Z,5.50
2017-12-06T11:02:26.688Z,5.60
2017-12-06T11:04:54.243Z,5.50
2017-12-06T11:07:21.742Z,5.60
2017-12-06T11:09:49.242Z,5.60
2017-12-06T11:12:16.795Z,5.60
2017-12-06T11:14:44.306Z,5.60
2017-12-06T11:17:11.810Z,5.60
2017-12-06T11:19:39.682Z,5.70
2017-12-06T11:22:07.186Z,5.70
2017-12-06T11:24:34.699Z,5.70
2017-12-06T11:27:02.258Z,5.50
2017-12-06T11:29:29.767Z,5.60
2017-12-06T11:31:57.277Z,5.60
2017-12-06T11:34:24.838Z,5.60
2017-12-06T11:36:52.338Z,5.70
2017-12-06T11:39:20.259Z,5.60
2017-12-06T11:41:47.822Z,5.50
2017-12-06T11:44:15.694Z,5.70
2017-12-06T11:46:43.962Z,5.50
2017-12-06T11:49:11.518Z,5.50
2017-12-06T11:51:39.552Z,5.40
2017-12-06T11:54:07.056Z,5.50
2017-12-06T11:56:34.916Z,5.70
2017-12-06T11:59:02.423Z,5.80
2017-12-06T12:01:29.926Z,5.80
2017-12-06T12:03:57.475Z,5.80
2017-12-06T12:06:24.980Z,5.80
2017-12-06T12:08:52.672Z,5.90
2017-12-06T12:11:20.231Z,5.90
2017-12-06T12:13:49.242Z,5.80
2017-12-06T12:16:17.535Z,5.90
2017-12-06T12:18:45.363Z,5.90
2017-12-06T12:21:12.978Z,6.00
2017-12-06T12:23:40.491Z,6.10
2017-12-06T12:26:08.023Z,6.00
2017-12-06T12:28:35.518Z,6.00
2017-12-06T12:31:03.027Z,6.10
2017-12-06T12:33:30.591Z,5.90
2017-12-06T12:35:58.100Z,5.90
2017-12-06T12:38:25.642Z,6.00
2017-12-06T12:40:53.288Z,6.00
2017-12-06T12:43:20.912Z,5.80
2017-12-06T12:45:52.250Z,5.90
2017-12-06T12:48:19.813Z,6.00
2017-12-06T12:50:47.331Z,5.90
2017-12-06T12:53:15.221Z,5.90
2017-12-06T12:55:42.878Z,5.90
2017-12-06T12:58:10.484Z,5.70
2017-12-06T13:00:37.983Z,5.80
2017-12-06T13:03:05.550Z,5.90
2017-12-06T13:05:33.059Z,6.00
2017-12-06T13:08:00.571Z,6.00
2017-12-06T13:10:28.689Z,6.00
2017-12-06T13:12:56.194Z,6.20
2017-12-06T13:15:23.703Z,6.10
2017-12-06T13:17:51.906Z,6.10
2017-12-06T13:20:19.416Z,6.20
2017-12-06T13:22:46.918Z,6.40
2017-12-06T13:25:14.462Z,6.30
2017-12-06T13:27:41.958Z,6.30
2017-12-06T13:30:09.463Z,6.30
2017-12-06T13:32:37.022Z,6.30
2017-12-06T13:35:04.806Z,6.20
2017-12-06T13:37:32.314Z,6.30
2017-12-06T13:39:59.870Z,6.30
2017-12-06T13:42:28.134Z,5.90
2017-12-06T13:44:56.404Z,5.90
2017-12-06T13:47:23.959Z,6.00
2017-12-06T13:49:51.463Z,6.10
2017-12-06T13:52:18.973Z,6.00
2017-12-06T13:54:46.583Z,6.00
2017-12-06T13:57:14.086Z,5.80
2017-12-06T13:59:41.894Z,5.70
2017-12-06T14:02:09.442Z,5.60
2017-12-06T14:04:36.942Z,5.60
2017-12-06T14:07:04.442Z,5.60
2017-12-06T14:09:32.011Z,5.70
2017-12-06T14:11:59.518Z,5.80
2017-12-06T14:14:27.019Z,5.60
2017-12-06T14:16:54.590Z,5.60
2017-12-06T14:19:22.086Z,5.80
2017-12-06T14:21:49.590Z,5.80
2017-12-06T14:24:17.155Z,5.70
2017-12-06T14:26:44.655Z,5.70
2017-12-06T14:29:12.999Z,5.80
2017-12-06T14:31:40.802Z,5.80
2017-12-06T14:34:08.307Z,5.70
2017-12-06T14:36:35.839Z,5.70
2017-12-06T14:39:03.408Z,5.60
2017-12-06T14:41:30.906Z,5.50
2017-12-06T14:43:58.439Z,5.50
2017-12-06T14:46:26.239Z,5.50
2017-12-06T14:48:54.358Z,5.70
2017-12-06T14:51:21.858Z,5.70
2017-12-06T14:53:49.427Z,5.70
2017-12-06T14:56:16.933Z,5.80
2017-12-06T14:58:44.463Z,5.70
2017-12-06T15:01:11.999Z,5.80
2017-12-06T15:03:39.510Z,5.70
2017-12-06T15:06:07.010Z,5.70
2017-12-06T15:08:34.546Z,5.60
2017-12-06T15:11:02.078Z,5.60
2017-12-06T15:13:30.339Z,5.40
2017-12-06T15:15:57.850Z,5.30
2017-12-06T15:18:25.359Z,5.30
2017-12-06T15:20:52.923Z,5.30
2017-12-06T15:23:20.433Z,5.40
2017-12-06T15:25:48.494Z,5.40
2017-12-06T15:28:16.102Z,5.30
2017-12-06T15:30:43.622Z,5.30
2017-12-06T15:33:11.052Z,5.40
2017-12-06T15:35:38.554Z,5.40
2017-12-06T15:38:06.067Z,5.40
2017-12-06T15:40:35.458Z,5.40
2017-12-06T15:43:02.963Z,5.30
2017-12-06T15:45:31.247Z,5.40
2017-12-06T15:47:59.571Z,5.20
2017-12-06T15:50:28.198Z,5.30
2017-12-06T15:52:55.730Z,5.30
2017-12-06T15:55:23.243Z,5.30
2017-12-06T15:57:51.346Z,5.30
2017-12-06T16:00:18.857Z,5.30
2017-12-06T16:02:47.129Z,5.30
2017-12-06T16:05:14.707Z,5.30
2017-12-06T16:07:42.794Z,5.30
2017-12-06T16:10:10.334Z,5.30
2017-12-06T16:12:37.655Z,5.30
2017-12-06T16:15:05.187Z,5.30
2017-12-06T16:17:32.694Z,5.20
2017-12-06T16:20:01.011Z,5.10
2017-12-06T16:22:28.526Z,5.10
2017-12-06T16:24:56.043Z,5.20
2017-12-06T16:27:23.571Z,5.20
2017-12-06T16:29:51.074Z,5.00
2017-12-06T16:32:18.655Z,5.10
2017-12-06T16:34:58.386Z,5.10
2017-12-06T16:37:28.546Z,5.10
2017-12-06T16:39:56.816Z,5.10
2017-12-06T16:42:24.415Z,5.00
2017-12-06T16:44:52.627Z,5.10
2017-12-06T16:47:20.142Z,5.10
2017-12-06T16:49:47.710Z,5.20
2017-12-06T16:52:15.215Z,5.20
2017-12-06T16:54:42.915Z,5.10
2017-12-06T16:57:10.498Z,5.10
2017-12-06T16:59:38.010Z,5.00
2017-12-06T17:02:05.541Z,5.00
2017-12-06T17:04:33.794Z,5.00
2017-12-06T17:07:01.295Z,5.10
2017-12-06T17:09:29.578Z,5.00
2017-12-06T17:11:57.703Z,5.00
2017-12-06T17:14:24.983Z,5.10
2017-12-06T17:16:52.482Z,5.00
2017-12-06T17:19:20.146Z,5.00
2017-12-06T17:21:47.650Z,5.00
2017-12-06T17:24:15.878Z,5.00
2017-12-06T17:26:43.438Z,5.00
2017-12-06T17:29:22.682Z,5.00
2017-12-06T17:31:51.086Z,5.00
2017-12-06T17:34:18.590Z,5.00
2017-12-06T17:36:46.962Z,4.90
2017-12-06T17:39:14.497Z,4.90
2017-12-06T17:41:42.078Z,4.90
2017-12-06T17:44:10.706Z,4.80
2017-12-06T17:46:38.609Z,4.80
2017-12-06T17:49:06.114Z,4.80
2017-12-06T17:51:34.203Z,4.90
2017-12-06T17:54:01.710Z,4.90
2017-12-06T17:56:30.869Z,4.80
2017-12-06T17:58:58.435Z,4.80
2017-12-06T18:01:25.942Z,4.80
2017-12-06T18:03:53.446Z,4.80
2017-12-06T18:06:21.520Z,4.80
2017-12-06T18:08:49.031Z,4.80
2017-12-06T18:11:17.118Z,4.80
2017-12-06T18:13:44.686Z,4.70
2017-12-06T18:16:12.360Z,4.80
2017-12-06T18:18:39.885Z,4.80
2017-12-06T18:21:08.211Z,4.70
2017-12-06T18:23:35.811Z,4.70
2017-12-06T18:26:04.042Z,4.70
2017-12-06T18:28:32.294Z,4.70
2017-12-06T18:30:59.794Z,4.70
2017-12-06T18:33:27.297Z,4.70
2017-12-06T18:35:55.194Z,4.70
2017-12-06T18:38:22.702Z,4.70
2017-12-06T18:40:50.970Z,4.70
2017-12-06T18:43:18.514Z,4.70
2017-12-06T18:45:46.025Z,4.60
2017-12-06T18:48:13.534Z,4.60
2017-12-06T18:50:41.462Z,4.70
2017-12-06T18:53:09.003Z,4.70
2017-12-06T18:55:36.503Z,4.60
2017-12-06T18:58:04.328Z,4.50
2017-12-06T19:00:32.911Z,4.50
2017-12-06T19:03:00.750Z,4.50
2017-12-06T19:05:28.715Z,4.50
2017-12-06T19:07:56.225Z,4.40
2017-12-06T19:10:24.352Z,4.50
2017-12-06T19:12:51.954Z,4.40
2017-12-06T19:15:19.882Z,4.30
2017-12-06T19:17:47.386Z,4.30
2017-12-06T19:20:14.946Z,4.30
2017-12-06T19:22:43.215Z,4.30
2017-12-06T19:25:11.483Z,4.30
2017-12-06T19:27:39.815Z,4.30
2017-12-06T19:30:07.331Z,4.20
2017-12-06T19:32:34.855Z,4.20
2017-12-06T19:35:03.170Z,4.10
2017-12-06T19:37:30.674Z,4.10
2017-12-06T19:39:58.183Z,4.10
2017-12-06T19:42:25.772Z,4.10
2017-12-06T19:44:53.547Z,4.00
2017-12-06T19:47:21.283Z,4.00
2017-12-06T19:49:49.478Z,4.10
2017-12-06T19:52:16.990Z,4.00
2017-12-06T19:54:44.521Z,3.90
2017-12-06T19:57:12.215Z,3.80
2017-12-06T19:59:39.951Z,3.80
2017-12-06T20:02:07.450Z,3.80
2017-12-06T20:04:34.999Z,3.80
2017-12-06T20:07:02.503Z,3.70
2017-12-06T20:09:30.007Z,3.70
2017-12-06T20:11:57.550Z,3.70
2017-12-06T20:14:25.056Z,3.70
2017-12-06T20:16:52.559Z,3.80
2017-12-06T20:19:20.120Z,3.60
2017-12-06T20:21:47.631Z,3.70
2017-12-06T20:24:15.130Z,3.70
2017-12-06T20:26:42.686Z,3.60
2017-12-06T20:29:10.338Z,3.70
2017-12-06T20:31:37.851Z,3.60
2017-12-06T20:34:06.062Z,3.70
2017-12-06T20:36:34.367Z,3.50
2017-12-06T20:39:02.289Z,3.60
2017-12-06T20:41:29.962Z,3.50
2017-12-06T20:43:58.026Z,3.50
2017-12-06T20:46:25.526Z,3.40
2017-12-06T20:48:53.078Z,3.40
2017-12-06T20:51:20.654Z,3.40
2017-12-06T20:53:48.171Z,3.40
2017-12-06T20:56:15.665Z,3.40
2017-12-06T20:58:43.256Z,3.30
2017-12-06T21:01:11.621Z,3.30
2017-12-06T21:03:39.323Z,3.30
2017-12-06T21:06:07.592Z,3.30
2017-12-06T21:08:35.100Z,3.30
2017-12-06T21:11:02.994Z,3.30
2017-12-06T21:13:31.310Z,3.20
2017-12-06T21:15:58.837Z,3.20
2017-12-06T21:18:26.415Z,3.20
2017-12-06T21:20:54.980Z,3.20
2017-12-06T21:23:22.490Z,3.20
2017-12-06T21:25:50.075Z,3.20
2017-12-06T21:28:17.579Z,3.20
2017-12-06T21:30:45.172Z,3.10
2017-12-06T21:33:12.722Z,2.90
2017-12-06T21:35:40.222Z,2.80
2017-12-06T21:38:08.522Z,2.90
2017-12-06T21:40:36.062Z,2.90
2017-12-06T21:43:04.112Z,2.90
2017-12-06T21:45:32.039Z,2.90
2017-12-06T21:47:59.579Z,2.90
2017-12-06T21:50:27.335Z,3.00
2017-12-06T21:52:54.843Z,3.00
2017-12-06T21:55:22.397Z,3.00
2017-12-06T21:57:49.886Z,3.00
2017-12-06T22:00:17.783Z,2.90
2017-12-06T22:02:45.339Z,2.90
2017-12-06T22:05:13.251Z,2.90
2017-12-06T22:07:40.755Z,2.90
2017-12-06T22:10:08.258Z,2.70
2017-12-06T22:12:36.591Z,2.80
2017-12-06T22:15:04.862Z,2.70
2017-12-06T22:17:33.135Z,2.70
2017-12-06T22:20:00.690Z,2.70
2017-12-06T22:22:28.216Z,2.60
2017-12-06T22:24:55.726Z,2.50
2017-12-06T22:27:23.289Z,2.40
2017-12-06T22:29:50.802Z,2.20
2017-12-06T22:32:18.313Z,2.50
2017-12-06T22:34:46.308Z,2.60
2017-12-06T22:37:13.814Z,2.60
2017-12-06T22:39:42.134Z,2.60
2017-12-06T22:42:09.710Z,2.60
2017-12-06T22:44:37.216Z,2.50
2017-12-06T22:47:05.486Z,2.40
2017-12-06T22:49:33.135Z,2.40
2017-12-06T22:52:00.764Z,2.40
2017-12-06T22:54:28.282Z,2.30
2017-12-06T22:56:55.900Z,2.30
2017-12-06T22:59:23.434Z,2.30
2017-12-06T23:01:50.971Z,2.00
2017-12-06T23:04:18.555Z,2.20
2017-12-06T23:06:46.075Z,2.10
2017-12-06T23:09:13.919Z,2.10
2017-12-06T23:11:41.434Z,2.00
2017-12-06T23:14:08.974Z,2.10
2017-12-06T23:16:36.542Z,2.00
2017-12-06T23:19:04.117Z,2.00
2017-12-06T23:21:31.586Z,2.00
2017-12-06T23:23:59.162Z,1.80
2017-12-06T23:26:26.939Z,1.80
2017-12-06T23:28:54.498Z,1.80
2017-12-06T23:31:22.055Z,1.70
2017-12-06T23:33:49.574Z,1.70
2017-12-06T23:36:17.078Z,1.80
2017-12-06T23:38:45.083Z,1.70
2017-12-06T23:41:12.606Z,1.70
2017-12-06T23:43:40.111Z,1.60
2017-12-06T23:46:08.692Z,1.60
2017-12-06T23:48:36.202Z,1.60
2017-12-06T23:51:03.876Z,1.70
2017-12-06T23:53:31.938Z,1.70
2017-12-06T23:55:59.451Z,1.70
2017-12-06T23:58:27.148Z,1.70
